This is the latest recevied weather packets stored in our database for station/object KC0RPY. If no packets are shown the sender has not sent any weather packets the latest 10 day(s).
| Time | Temp. | Humidity | Pressure | Rain* | Wind** | Luminosity | Snow |
|---|---|---|---|---|---|---|---|
| 1777739597 | 13.33° C | 46% | 1023 hPa | 0 mm | - | 899 W/m² | - |
| 1777739294 | 13.89° C | 46% | 1023 hPa | 0 mm | - | 887 W/m² | - |
| 1777738990 | 14.44° C | 45% | 1023 hPa | 0 mm | - | 911 W/m² | - |
| 1777738688 | 13.89° C | 45% | 1023 hPa | 0 mm | - | 886 W/m² | - |
| 1777738384 | 13.33° C | 46% | 1023 hPa | 0 mm | - | 873 W/m² | - |
| 1777738082 | 13.89° C | 44% | 1023 hPa | 0 mm | - | 868 W/m² | - |
| 1777737781 | 13.33° C | 46% | 1023 hPa | 0 mm | - | 833 W/m² | - |
| 1777737479 | 12.78° C | 48% | 1023 hPa | 0 mm | - | 817 W/m² | - |
| 1777737176 | 13.33° C | 48% | 1023 hPa | 0 mm | - | 791 W/m² | - |
| 1777736871 | 13.33° C | 45% | 1023 hPa | 0 mm | - | 776 W/m² | - |
| 1777736258 | 13.33° C | 48% | 1023 hPa | 0 mm | - | 761 W/m² | - |
| 1777735955 | 13.33° C | 51% | 1023.3 hPa | 0 mm | - | 732 W/m² | - |
| 1777735653 | 12.22° C | 54% | 1023 hPa | 0 mm | - | 721 W/m² | - |
| 1777735350 | 12.78° C | 53% | 1023 hPa | 0 mm | - | 690 W/m² | - |
| 1777735047 | 12.22° C | 54% | 1023 hPa | 0 mm | - | 658 W/m² | - |
| 1777734744 | 11.67° C | 55% | 1023 hPa | 0 mm | - | 629 W/m² | - |
| 1777734442 | 11.67° C | 57% | 1023 hPa | 0 mm | - | 597 W/m² | - |
| 1777734138 | 11.67° C | 58% | 1023 hPa | 0 mm | - | 590 W/m² | - |
| 1777733835 | 11.67° C | 58% | 1023 hPa | 0 mm | - | 563 W/m² | - |
| 1777733531 | 11.11° C | 58% | 1023 hPa | 0 mm | - | 561 W/m² | - |
| 1777733228 | 11.11° C | 59% | 1023 hPa | 0 mm | - | 537 W/m² | - |
| 1777732925 | 11.11° C | 59% | 1023 hPa | 0 mm | - | 480 W/m² | - |
| 1777732621 | 10.56° C | 61% | 1023 hPa | 0 mm | - | 453 W/m² | - |
| 1777732319 | 10.56° C | 62% | 1022.6 hPa | 0 mm | - | 444 W/m² | - |
| 1777732015 | 10.56° C | 61% | 1023 hPa | 0 mm | - | 429 W/m² | - |
* Rain latest hour (hover to see other rain measurements)
** Current wind speed in m/s (hover to see current wind gust speed)